sensor_id;sensor_type;location;lat;lon;timestamp;P1;durP1;ratioP1;P2;durP2;ratioP2
8803;SDS011;4438;50.890;4.726;2023-02-05T00:00:30;28.77;;;22.50;;
8803;SDS011;4438;50.890;4.726;2023-02-05T00:02:56;25.90;;;22.60;;
8803;SDS011;4438;50.890;4.726;2023-02-05T00:05:22;26.70;;;22.80;;
8803;SDS011;4438;50.890;4.726;2023-02-05T00:07:48;29.17;;;24.03;;
8803;SDS011;4438;50.890;4.726;2023-02-05T00:10:15;27.73;;;22.83;;
8803;SDS011;4438;50.890;4.726;2023-02-05T00:12:41;30.83;;;24.17;;
8803;SDS011;4438;50.890;4.726;2023-02-05T00:15:07;29.40;;;23.13;;
8803;SDS011;4438;50.890;4.726;2023-02-05T00:17:34;28.03;;;22.80;;
8803;SDS011;4438;50.890;4.726;2023-02-05T00:20:00;27.57;;;23.23;;
8803;SDS011;4438;50.890;4.726;2023-02-05T00:22:27;28.40;;;23.27;;
8803;SDS011;4438;50.890;4.726;2023-02-05T00:24:53;29.50;;;24.03;;
8803;SDS011;4438;50.890;4.726;2023-02-05T00:27:19;29.47;;;23.93;;
8803;SDS011;4438;50.890;4.726;2023-02-05T00:29:45;28.37;;;22.80;;
8803;SDS011;4438;50.890;4.726;2023-02-05T00:32:11;28.63;;;22.83;;
8803;SDS011;4438;50.890;4.726;2023-02-05T00:34:37;29.67;;;23.23;;
8803;SDS011;4438;50.890;4.726;2023-02-05T00:37:03;29.13;;;23.00;;
8803;SDS011;4438;50.890;4.726;2023-02-05T00:39:30;29.20;;;23.57;;
8803;SDS011;4438;50.890;4.726;2023-02-05T00:41:56;27.17;;;22.17;;
8803;SDS011;4438;50.890;4.726;2023-02-05T00:44:22;29.30;;;23.33;;
8803;SDS011;4438;50.890;4.726;2023-02-05T00:46:48;27.20;;;22.40;;
8803;SDS011;4438;50.890;4.726;2023-02-05T00:49:14;28.87;;;23.40;;
8803;SDS011;4438;50.890;4.726;2023-02-05T00:51:40;26.33;;;22.27;;
8803;SDS011;4438;50.890;4.726;2023-02-05T00:54:06;28.30;;;22.33;;
8803;SDS011;4438;50.890;4.726;2023-02-05T00:56:32;27.60;;;22.03;;
8803;SDS011;4438;50.890;4.726;2023-02-05T00:58:58;27.50;;;21.03;;
8803;SDS011;4438;50.890;4.726;2023-02-05T01:01:25;26.77;;;22.00;;
8803;SDS011;4438;50.890;4.726;2023-02-05T01:03:51;28.73;;;22.60;;
8803;SDS011;4438;50.890;4.726;2023-02-05T01:06:17;28.03;;;22.03;;
8803;SDS011;4438;50.890;4.726;2023-02-05T01:08:43;27.43;;;21.57;;
8803;SDS011;4438;50.890;4.726;2023-02-05T01:11:09;27.47;;;21.53;;
8803;SDS011;4438;50.890;4.726;2023-02-05T01:13:36;28.07;;;22.13;;
8803;SDS011;4438;50.890;4.726;2023-02-05T01:16:02;25.57;;;21.13;;
8803;SDS011;4438;50.890;4.726;2023-02-05T01:18:28;26.43;;;21.73;;
8803;SDS011;4438;50.890;4.726;2023-02-05T01:20:54;26.17;;;21.37;;
8803;SDS011;4438;50.890;4.726;2023-02-05T01:23:20;24.97;;;21.20;;
8803;SDS011;4438;50.890;4.726;2023-02-05T01:25:46;26.13;;;21.00;;
8803;SDS011;4438;50.890;4.726;2023-02-05T01:28:12;27.03;;;20.23;;
8803;SDS011;4438;50.890;4.726;2023-02-05T01:30:38;30.47;;;22.87;;
8803;SDS011;4438;50.890;4.726;2023-02-05T01:33:04;26.40;;;20.17;;
8803;SDS011;4438;50.890;4.726;2023-02-05T01:35:30;28.23;;;21.37;;
8803;SDS011;4438;50.890;4.726;2023-02-05T01:37:57;25.50;;;20.63;;
8803;SDS011;4438;50.890;4.726;2023-02-05T01:40:23;25.33;;;21.20;;
8803;SDS011;4438;50.890;4.726;2023-02-05T01:42:49;25.77;;;19.87;;
8803;SDS011;4438;50.890;4.726;2023-02-05T01:47:48;26.67;;;20.33;;
8803;SDS011;4438;50.890;4.726;2023-02-05T01:50:15;25.57;;;20.47;;
8803;SDS011;4438;50.890;4.726;2023-02-05T01:52:41;25.47;;;20.70;;
8803;SDS011;4438;50.890;4.726;2023-02-05T01:55:08;23.63;;;18.97;;
8803;SDS011;4438;50.890;4.726;2023-02-05T01:57:34;24.13;;;18.87;;
8803;SDS011;4438;50.890;4.726;2023-02-05T02:00:02;23.13;;;18.67;;
8803;SDS011;4438;50.890;4.726;2023-02-05T02:02:28;23.20;;;18.53;;
8803;SDS011;4438;50.890;4.726;2023-02-05T02:04:55;23.43;;;18.50;;
8803;SDS011;4438;50.890;4.726;2023-02-05T02:07:23;22.53;;;17.97;;
8803;SDS011;4438;50.890;4.726;2023-02-05T02:09:49;21.30;;;17.73;;
8803;SDS011;4438;50.890;4.726;2023-02-05T02:12:18;21.80;;;16.87;;
8803;SDS011;4438;50.890;4.726;2023-02-05T02:14:46;23.83;;;18.27;;
8803;SDS011;4438;50.890;4.726;2023-02-05T02:17:13;19.90;;;16.93;;
8803;SDS011;4438;50.890;4.726;2023-02-05T02:22:11;22.10;;;17.57;;
8803;SDS011;4438;50.890;4.726;2023-02-05T02:24:47;21.20;;;17.83;;
8803;SDS011;4438;50.890;4.726;2023-02-05T02:27:27;21.67;;;18.07;;
8803;SDS011;4438;50.890;4.726;2023-02-05T02:30:05;23.50;;;18.37;;
8803;SDS011;4438;50.890;4.726;2023-02-05T02:35:23;23.83;;;18.07;;
8803;SDS011;4438;50.890;4.726;2023-02-05T02:38:11;22.47;;;17.13;;
8803;SDS011;4438;50.890;4.726;2023-02-05T02:40:43;23.67;;;17.67;;
8803;SDS011;4438;50.890;4.726;2023-02-05T02:45:39;23.67;;;17.63;;
8803;SDS011;4438;50.890;4.726;2023-02-05T02:48:06;22.23;;;17.03;;
8803;SDS011;4438;50.890;4.726;2023-02-05T02:50:34;19.17;;;15.73;;
8803;SDS011;4438;50.890;4.726;2023-02-05T02:53:07;22.63;;;16.47;;
8803;SDS011;4438;50.890;4.726;2023-02-05T02:55:35;19.60;;;15.10;;
8803;SDS011;4438;50.890;4.726;2023-02-05T02:58:02;20.20;;;15.90;;
8803;SDS011;4438;50.890;4.726;2023-02-05T03:00:30;19.93;;;14.40;;
8803;SDS011;4438;50.890;4.726;2023-02-05T03:02:58;18.23;;;13.87;;
8803;SDS011;4438;50.890;4.726;2023-02-05T03:05:26;18.03;;;14.00;;
8803;SDS011;4438;50.890;4.726;2023-02-05T03:07:54;15.27;;;12.50;;
8803;SDS011;4438;50.890;4.726;2023-02-05T03:10:29;14.83;;;11.87;;
8803;SDS011;4438;50.890;4.726;2023-02-05T03:12:57;14.00;;;11.87;;
8803;SDS011;4438;50.890;4.726;2023-02-05T03:15:23;15.80;;;12.17;;
8803;SDS011;4438;50.890;4.726;2023-02-05T03:17:50;15.00;;;11.63;;
8803;SDS011;4438;50.890;4.726;2023-02-05T03:20:21;14.03;;;11.20;;
8803;SDS011;4438;50.890;4.726;2023-02-05T03:22:48;13.77;;;11.13;;
8803;SDS011;4438;50.890;4.726;2023-02-05T03:25:15;12.93;;;10.40;;
8803;SDS011;4438;50.890;4.726;2023-02-05T03:27:44;18.70;;;10.67;;
8803;SDS011;4438;50.890;4.726;2023-02-05T03:30:10;12.37;;;10.40;;
8803;SDS011;4438;50.890;4.726;2023-02-05T03:42:51;13.07;;;8.90;;
8803;SDS011;4438;50.890;4.726;2023-02-05T03:50:26;8.37;;;7.00;;
8803;SDS011;4438;50.890;4.726;2023-02-05T03:52:56;9.47;;;7.60;;
8803;SDS011;4438;50.890;4.726;2023-02-05T03:55:28;10.17;;;7.83;;
8803;SDS011;4438;50.890;4.726;2023-02-05T03:57:58;7.90;;;7.07;;
8803;SDS011;4438;50.890;4.726;2023-02-05T04:00:26;10.33;;;7.20;;
8803;SDS011;4438;50.890;4.726;2023-02-05T04:02:53;9.93;;;6.83;;
8803;SDS011;4438;50.890;4.726;2023-02-05T04:05:19;9.40;;;7.07;;
8803;SDS011;4438;50.890;4.726;2023-02-05T04:07:47;8.93;;;6.87;;
8803;SDS011;4438;50.890;4.726;2023-02-05T04:10:13;10.70;;;6.97;;
8803;SDS011;4438;50.890;4.726;2023-02-05T04:12:39;7.33;;;6.60;;
8803;SDS011;4438;50.890;4.726;2023-02-05T04:15:06;10.13;;;6.57;;
8803;SDS011;4438;50.890;4.726;2023-02-05T04:17:38;9.00;;;7.43;;
8803;SDS011;4438;50.890;4.726;2023-02-05T04:20:04;6.73;;;6.03;;
8803;SDS011;4438;50.890;4.726;2023-02-05T04:22:31;8.43;;;6.30;;
8803;SDS011;4438;50.890;4.726;2023-02-05T04:24:57;8.87;;;6.50;;
8803;SDS011;4438;50.890;4.726;2023-02-05T04:27:23;9.80;;;6.23;;
8803;SDS011;4438;50.890;4.726;2023-02-05T04:29:50;7.07;;;6.27;;
8803;SDS011;4438;50.890;4.726;2023-02-05T04:32:16;7.57;;;6.37;;
8803;SDS011;4438;50.890;4.726;2023-02-05T04:34:42;6.93;;;5.73;;
8803;SDS011;4438;50.890;4.726;2023-02-05T04:37:08;8.93;;;6.37;;
8803;SDS011;4438;50.890;4.726;2023-02-05T04:39:34;7.27;;;6.20;;
8803;SDS011;4438;50.890;4.726;2023-02-05T04:42:00;6.53;;;5.77;;
8803;SDS011;4438;50.890;4.726;2023-02-05T04:44:26;8.80;;;6.37;;
8803;SDS011;4438;50.890;4.726;2023-02-05T04:46:52;6.67;;;5.90;;
8803;SDS011;4438;50.890;4.726;2023-02-05T04:49:19;6.90;;;6.20;;
8803;SDS011;4438;50.890;4.726;2023-02-05T04:51:45;8.23;;;6.70;;
8803;SDS011;4438;50.890;4.726;2023-02-05T04:54:11;10.17;;;6.70;;
8803;SDS011;4438;50.890;4.726;2023-02-05T04:56:37;8.80;;;6.93;;
8803;SDS011;4438;50.890;4.726;2023-02-05T04:59:03;7.83;;;6.63;;
8803;SDS011;4438;50.890;4.726;2023-02-05T05:01:29;8.73;;;7.07;;
8803;SDS011;4438;50.890;4.726;2023-02-05T05:03:55;10.00;;;6.90;;
8803;SDS011;4438;50.890;4.726;2023-02-05T05:06:22;9.17;;;6.67;;
8803;SDS011;4438;50.890;4.726;2023-02-05T05:08:48;10.70;;;7.90;;
8803;SDS011;4438;50.890;4.726;2023-02-05T05:11:15;10.27;;;7.50;;
8803;SDS011;4438;50.890;4.726;2023-02-05T05:13:42;9.37;;;8.00;;
8803;SDS011;4438;50.890;4.726;2023-02-05T05:16:08;9.77;;;7.80;;
8803;SDS011;4438;50.890;4.726;2023-02-05T05:18:35;12.60;;;8.97;;
8803;SDS011;4438;50.890;4.726;2023-02-05T05:21:01;10.87;;;8.77;;
8803;SDS011;4438;50.890;4.726;2023-02-05T05:23:28;10.13;;;8.57;;
8803;SDS011;4438;50.890;4.726;2023-02-05T05:25:54;11.33;;;9.10;;
8803;SDS011;4438;50.890;4.726;2023-02-05T05:28:20;12.73;;;9.50;;
8803;SDS011;4438;50.890;4.726;2023-02-05T05:30:46;12.63;;;10.30;;
8803;SDS011;4438;50.890;4.726;2023-02-05T05:33:12;12.60;;;10.70;;
8803;SDS011;4438;50.890;4.726;2023-02-05T05:35:38;11.97;;;10.57;;
8803;SDS011;4438;50.890;4.726;2023-02-05T05:38:04;13.20;;;10.13;;
8803;SDS011;4438;50.890;4.726;2023-02-05T05:40:31;15.57;;;11.50;;
8803;SDS011;4438;50.890;4.726;2023-02-05T05:43:16;15.33;;;11.53;;
8803;SDS011;4438;50.890;4.726;2023-02-05T05:46:02;13.43;;;11.47;;
8803;SDS011;4438;50.890;4.726;2023-02-05T05:48:28;16.50;;;12.87;;
8803;SDS011;4438;50.890;4.726;2023-02-05T05:50:54;16.70;;;12.90;;
8803;SDS011;4438;50.890;4.726;2023-02-05T05:53:20;17.60;;;13.40;;
8803;SDS011;4438;50.890;4.726;2023-02-05T05:55:46;19.63;;;14.77;;
8803;SDS011;4438;50.890;4.726;2023-02-05T05:58:12;18.30;;;14.90;;
8803;SDS011;4438;50.890;4.726;2023-02-05T06:00:39;18.07;;;14.93;;
8803;SDS011;4438;50.890;4.726;2023-02-05T06:03:05;19.37;;;15.33;;
8803;SDS011;4438;50.890;4.726;2023-02-05T06:05:32;20.27;;;15.90;;
8803;SDS011;4438;50.890;4.726;2023-02-05T06:07:58;20.53;;;15.97;;
8803;SDS011;4438;50.890;4.726;2023-02-05T06:10:24;18.90;;;16.83;;
8803;SDS011;4438;50.890;4.726;2023-02-05T06:12:51;20.43;;;17.70;;
8803;SDS011;4438;50.890;4.726;2023-02-05T06:15:17;21.63;;;18.17;;
8803;SDS011;4438;50.890;4.726;2023-02-05T06:17:43;20.67;;;17.33;;
8803;SDS011;4438;50.890;4.726;2023-02-05T06:20:10;21.97;;;19.20;;
8803;SDS011;4438;50.890;4.726;2023-02-05T06:22:36;21.73;;;18.07;;
8803;SDS011;4438;50.890;4.726;2023-02-05T06:25:03;22.27;;;18.53;;
8803;SDS011;4438;50.890;4.726;2023-02-05T06:27:30;21.33;;;19.03;;
8803;SDS011;4438;50.890;4.726;2023-02-05T06:29:56;20.73;;;18.07;;
8803;SDS011;4438;50.890;4.726;2023-02-05T06:32:22;22.30;;;18.63;;
8803;SDS011;4438;50.890;4.726;2023-02-05T06:34:48;21.50;;;18.80;;
8803;SDS011;4438;50.890;4.726;2023-02-05T06:37:14;23.40;;;18.67;;
8803;SDS011;4438;50.890;4.726;2023-02-05T06:39:41;21.50;;;18.63;;
8803;SDS011;4438;50.890;4.726;2023-02-05T06:42:07;19.90;;;17.73;;
8803;SDS011;4438;50.890;4.726;2023-02-05T06:44:33;21.93;;;19.20;;
8803;SDS011;4438;50.890;4.726;2023-02-05T06:47:00;21.70;;;19.40;;
8803;SDS011;4438;50.890;4.726;2023-02-05T06:49:26;21.37;;;18.87;;
8803;SDS011;4438;50.890;4.726;2023-02-05T06:51:52;21.60;;;19.30;;
8803;SDS011;4438;50.890;4.726;2023-02-05T06:54:19;21.73;;;18.63;;
8803;SDS011;4438;50.890;4.726;2023-02-05T06:56:45;23.30;;;19.30;;
8803;SDS011;4438;50.890;4.726;2023-02-05T06:59:11;23.13;;;19.67;;
8803;SDS011;4438;50.890;4.726;2023-02-05T07:01:38;22.50;;;19.00;;
8803;SDS011;4438;50.890;4.726;2023-02-05T07:04:04;21.23;;;18.93;;
8803;SDS011;4438;50.890;4.726;2023-02-05T07:06:30;24.00;;;18.33;;
8803;SDS011;4438;50.890;4.726;2023-02-05T07:08:56;20.87;;;18.30;;
8803;SDS011;4438;50.890;4.726;2023-02-05T07:11:24;19.80;;;16.43;;
8803;SDS011;4438;50.890;4.726;2023-02-05T07:13:50;21.23;;;16.57;;
8803;SDS011;4438;50.890;4.726;2023-02-05T07:16:16;18.70;;;14.60;;
8803;SDS011;4438;50.890;4.726;2023-02-05T07:18:42;16.73;;;13.13;;
8803;SDS011;4438;50.890;4.726;2023-02-05T07:21:09;9.53;;;7.97;;
8803;SDS011;4438;50.890;4.726;2023-02-05T07:23:37;11.57;;;5.93;;
8803;SDS011;4438;50.890;4.726;2023-02-05T07:26:10;8.23;;;5.43;;
8803;SDS011;4438;50.890;4.726;2023-02-05T07:28:37;10.57;;;4.67;;
8803;SDS011;4438;50.890;4.726;2023-02-05T07:31:04;13.27;;;4.27;;
8803;SDS011;4438;50.890;4.726;2023-02-05T07:33:30;7.37;;;2.90;;
8803;SDS011;4438;50.890;4.726;2023-02-05T07:35:57;6.13;;;2.73;;
8803;SDS011;4438;50.890;4.726;2023-02-05T07:38:23;7.00;;;2.40;;
8803;SDS011;4438;50.890;4.726;2023-02-05T07:40:49;5.13;;;2.20;;
8803;SDS011;4438;50.890;4.726;2023-02-05T07:43:16;6.07;;;2.57;;
8803;SDS011;4438;50.890;4.726;2023-02-05T07:45:42;6.23;;;2.10;;
8803;SDS011;4438;50.890;4.726;2023-02-05T07:48:08;6.77;;;1.80;;
8803;SDS011;4438;50.890;4.726;2023-02-05T07:50:34;4.50;;;1.83;;
8803;SDS011;4438;50.890;4.726;2023-02-05T07:53:00;5.97;;;2.00;;
8803;SDS011;4438;50.890;4.726;2023-02-05T07:55:26;3.60;;;1.80;;
8803;SDS011;4438;50.890;4.726;2023-02-05T07:57:52;5.77;;;1.70;;
8803;SDS011;4438;50.890;4.726;2023-02-05T08:00:18;4.40;;;1.57;;
8803;SDS011;4438;50.890;4.726;2023-02-05T08:02:44;6.80;;;2.10;;
8803;SDS011;4438;50.890;4.726;2023-02-05T08:05:11;6.73;;;1.90;;
8803;SDS011;4438;50.890;4.726;2023-02-05T08:07:37;3.43;;;1.40;;
8803;SDS011;4438;50.890;4.726;2023-02-05T08:10:03;5.83;;;1.80;;
8803;SDS011;4438;50.890;4.726;2023-02-05T08:12:30;4.23;;;1.70;;
8803;SDS011;4438;50.890;4.726;2023-02-05T08:14:56;4.03;;;1.63;;
8803;SDS011;4438;50.890;4.726;2023-02-05T08:17:22;4.07;;;1.70;;
8803;SDS011;4438;50.890;4.726;2023-02-05T08:19:49;3.77;;;1.67;;
8803;SDS011;4438;50.890;4.726;2023-02-05T08:22:15;6.10;;;2.10;;
8803;SDS011;4438;50.890;4.726;2023-02-05T08:24:41;4.20;;;1.80;;
8803;SDS011;4438;50.890;4.726;2023-02-05T08:27:07;4.83;;;1.97;;
8803;SDS011;4438;50.890;4.726;2023-02-05T08:29:33;3.60;;;1.70;;
8803;SDS011;4438;50.890;4.726;2023-02-05T08:31:59;5.40;;;1.83;;
8803;SDS011;4438;50.890;4.726;2023-02-05T08:34:25;7.63;;;2.20;;
8803;SDS011;4438;50.890;4.726;2023-02-05T08:36:51;8.70;;;2.20;;
8803;SDS011;4438;50.890;4.726;2023-02-05T08:39:17;4.53;;;2.00;;
8803;SDS011;4438;50.890;4.726;2023-02-05T08:41:44;6.47;;;2.00;;
8803;SDS011;4438;50.890;4.726;2023-02-05T08:44:10;7.00;;;2.00;;
8803;SDS011;4438;50.890;4.726;2023-02-05T08:46:37;6.13;;;1.73;;
8803;SDS011;4438;50.890;4.726;2023-02-05T08:49:04;6.57;;;2.07;;
8803;SDS011;4438;50.890;4.726;2023-02-05T08:51:30;6.70;;;1.90;;
8803;SDS011;4438;50.890;4.726;2023-02-05T08:53:59;5.20;;;1.97;;
8803;SDS011;4438;50.890;4.726;2023-02-05T08:56:25;5.57;;;1.80;;
8803;SDS011;4438;50.890;4.726;2023-02-05T08:58:51;5.27;;;2.00;;
8803;SDS011;4438;50.890;4.726;2023-02-05T09:01:18;8.93;;;2.30;;
8803;SDS011;4438;50.890;4.726;2023-02-05T09:03:44;8.40;;;2.10;;
8803;SDS011;4438;50.890;4.726;2023-02-05T09:06:12;10.43;;;2.70;;
8803;SDS011;4438;50.890;4.726;2023-02-05T09:08:39;4.80;;;1.87;;
8803;SDS011;4438;50.890;4.726;2023-02-05T09:11:06;9.20;;;2.20;;
8803;SDS011;4438;50.890;4.726;2023-02-05T09:13:32;4.80;;;2.00;;
8803;SDS011;4438;50.890;4.726;2023-02-05T09:15:58;7.27;;;2.20;;
8803;SDS011;4438;50.890;4.726;2023-02-05T09:18:25;7.83;;;2.10;;
8803;SDS011;4438;50.890;4.726;2023-02-05T09:20:51;6.53;;;1.73;;
8803;SDS011;4438;50.890;4.726;2023-02-05T09:23:18;8.53;;;2.43;;
8803;SDS011;4438;50.890;4.726;2023-02-05T09:25:45;6.87;;;2.17;;
8803;SDS011;4438;50.890;4.726;2023-02-05T09:28:12;7.27;;;2.53;;
8803;SDS011;4438;50.890;4.726;2023-02-05T09:30:40;8.97;;;2.07;;
8803;SDS011;4438;50.890;4.726;2023-02-05T09:33:06;9.57;;;2.40;;
8803;SDS011;4438;50.890;4.726;2023-02-05T09:35:33;6.40;;;2.47;;
8803;SDS011;4438;50.890;4.726;2023-02-05T09:37:59;7.27;;;2.33;;
8803;SDS011;4438;50.890;4.726;2023-02-05T09:41:01;8.73;;;2.40;;
8803;SDS011;4438;50.890;4.726;2023-02-05T09:46:10;8.33;;;2.47;;
8803;SDS011;4438;50.890;4.726;2023-02-05T09:51:41;7.83;;;2.10;;
8803;SDS011;4438;50.890;4.726;2023-02-05T09:54:19;7.73;;;2.13;;
8803;SDS011;4438;50.890;4.726;2023-02-05T09:56:47;6.93;;;2.47;;
8803;SDS011;4438;50.890;4.726;2023-02-05T09:59:24;9.23;;;2.60;;
8803;SDS011;4438;50.890;4.726;2023-02-05T10:01:51;7.13;;;2.10;;
8803;SDS011;4438;50.890;4.726;2023-02-05T10:04:17;7.17;;;2.40;;
8803;SDS011;4438;50.890;4.726;2023-02-05T10:06:52;8.03;;;2.43;;
8803;SDS011;4438;50.890;4.726;2023-02-05T10:09:38;8.70;;;2.67;;
8803;SDS011;4438;50.890;4.726;2023-02-05T10:15:00;9.17;;;2.67;;
8803;SDS011;4438;50.890;4.726;2023-02-05T10:28:03;14.97;;;2.93;;
8803;SDS011;4438;50.890;4.726;2023-02-05T10:33:18;12.23;;;3.13;;
8803;SDS011;4438;50.890;4.726;2023-02-05T10:35:58;10.93;;;3.00;;
8803;SDS011;4438;50.890;4.726;2023-02-05T10:38:26;11.60;;;3.00;;
8803;SDS011;4438;50.890;4.726;2023-02-05T10:40:54;10.43;;;3.57;;
8803;SDS011;4438;50.890;4.726;2023-02-05T10:43:23;12.77;;;3.57;;
8803;SDS011;4438;50.890;4.726;2023-02-05T10:45:51;10.47;;;3.20;;
8803;SDS011;4438;50.890;4.726;2023-02-05T10:51:04;12.77;;;3.13;;
8803;SDS011;4438;50.890;4.726;2023-02-05T10:53:31;12.20;;;3.30;;
8803;SDS011;4438;50.890;4.726;2023-02-05T10:55:58;17.40;;;6.90;;
8803;SDS011;4438;50.890;4.726;2023-02-05T11:01:32;12.93;;;3.57;;
8803;SDS011;4438;50.890;4.726;2023-02-05T11:04:05;13.00;;;3.97;;
8803;SDS011;4438;50.890;4.726;2023-02-05T11:06:34;10.33;;;3.63;;
8803;SDS011;4438;50.890;4.726;2023-02-05T11:09:01;8.97;;;3.27;;
8803;SDS011;4438;50.890;4.726;2023-02-05T11:11:28;11.30;;;3.27;;
8803;SDS011;4438;50.890;4.726;2023-02-05T11:13:59;9.67;;;3.30;;
8803;SDS011;4438;50.890;4.726;2023-02-05T11:16:39;14.40;;;4.37;;
8803;SDS011;4438;50.890;4.726;2023-02-05T11:19:14;11.53;;;3.93;;
8803;SDS011;4438;50.890;4.726;2023-02-05T11:21:46;18.43;;;5.30;;
8803;SDS011;4438;50.890;4.726;2023-02-05T11:24:21;15.57;;;3.50;;
8803;SDS011;4438;50.890;4.726;2023-02-05T11:26:47;14.13;;;3.70;;
8803;SDS011;4438;50.890;4.726;2023-02-05T11:29:20;14.80;;;4.67;;
8803;SDS011;4438;50.890;4.726;2023-02-05T11:31:48;21.70;;;4.37;;
8803;SDS011;4438;50.890;4.726;2023-02-05T11:34:15;19.63;;;4.10;;
8803;SDS011;4438;50.890;4.726;2023-02-05T11:36:51;16.23;;;5.37;;
8803;SDS011;4438;50.890;4.726;2023-02-05T11:39:37;12.13;;;4.27;;
8803;SDS011;4438;50.890;4.726;2023-02-05T11:42:17;13.77;;;3.63;;
8803;SDS011;4438;50.890;4.726;2023-02-05T11:44:49;14.33;;;3.90;;
8803;SDS011;4438;50.890;4.726;2023-02-05T11:47:21;16.20;;;4.00;;
8803;SDS011;4438;50.890;4.726;2023-02-05T11:49:48;14.27;;;3.63;;
8803;SDS011;4438;50.890;4.726;2023-02-05T11:52:16;15.80;;;3.70;;
8803;SDS011;4438;50.890;4.726;2023-02-05T11:54:47;14.23;;;4.00;;
8803;SDS011;4438;50.890;4.726;2023-02-05T11:59:59;16.37;;;3.93;;
8803;SDS011;4438;50.890;4.726;2023-02-05T12:05:00;15.67;;;4.10;;
8803;SDS011;4438;50.890;4.726;2023-02-05T12:07:29;12.67;;;3.60;;
8803;SDS011;4438;50.890;4.726;2023-02-05T12:09:57;14.60;;;4.03;;
8803;SDS011;4438;50.890;4.726;2023-02-05T12:17:38;14.53;;;4.70;;
8803;SDS011;4438;50.890;4.726;2023-02-05T12:41:01;12.07;;;3.80;;
8803;SDS011;4438;50.890;4.726;2023-02-05T12:43:38;15.80;;;3.97;;
8803;SDS011;4438;50.890;4.726;2023-02-05T12:56:25;15.30;;;4.07;;
8803;SDS011;4438;50.890;4.726;2023-02-05T12:58:56;11.93;;;3.70;;
8803;SDS011;4438;50.890;4.726;2023-02-05T13:01:38;10.37;;;3.60;;
8803;SDS011;4438;50.890;4.726;2023-02-05T13:04:07;11.23;;;3.80;;
8803;SDS011;4438;50.890;4.726;2023-02-05T13:06:40;8.70;;;3.00;;
8803;SDS011;4438;50.890;4.726;2023-02-05T13:09:13;10.23;;;3.40;;
8803;SDS011;4438;50.890;4.726;2023-02-05T13:11:42;9.97;;;3.03;;
8803;SDS011;4438;50.890;4.726;2023-02-05T13:14:13;12.03;;;3.80;;
8803;SDS011;4438;50.890;4.726;2023-02-05T13:16:49;9.77;;;3.27;;
8803;SDS011;4438;50.890;4.726;2023-02-05T13:22:11;13.80;;;4.00;;
8803;SDS011;4438;50.890;4.726;2023-02-05T13:24:58;12.00;;;3.60;;
8803;SDS011;4438;50.890;4.726;2023-02-05T13:27:47;12.40;;;3.50;;
8803;SDS011;4438;50.890;4.726;2023-02-05T13:30:39;12.83;;;3.40;;
8803;SDS011;4438;50.890;4.726;2023-02-05T13:33:06;15.33;;;3.87;;
8803;SDS011;4438;50.890;4.726;2023-02-05T13:48:48;10.40;;;3.47;;
8803;SDS011;4438;50.890;4.726;2023-02-05T13:54:00;11.37;;;4.10;;
8803;SDS011;4438;50.890;4.726;2023-02-05T13:59:53;13.93;;;3.87;;
8803;SDS011;4438;50.890;4.726;2023-02-05T14:02:01;10.77;;;3.83;;
8803;SDS011;4438;50.890;4.726;2023-02-05T14:04:38;9.33;;;3.67;;
8803;SDS011;4438;50.890;4.726;2023-02-05T14:07:06;11.17;;;3.63;;
8803;SDS011;4438;50.890;4.726;2023-02-05T14:09:34;11.10;;;3.70;;
8803;SDS011;4438;50.890;4.726;2023-02-05T14:12:11;10.70;;;4.00;;
8803;SDS011;4438;50.890;4.726;2023-02-05T14:14:45;8.57;;;3.37;;
8803;SDS011;4438;50.890;4.726;2023-02-05T14:20:00;9.40;;;3.50;;
8803;SDS011;4438;50.890;4.726;2023-02-05T14:24:59;11.30;;;3.37;;
8803;SDS011;4438;50.890;4.726;2023-02-05T14:29:51;9.27;;;3.10;;
8803;SDS011;4438;50.890;4.726;2023-02-05T14:37:24;7.83;;;3.00;;
8803;SDS011;4438;50.890;4.726;2023-02-05T14:39:51;8.20;;;3.03;;
8803;SDS011;4438;50.890;4.726;2023-02-05T14:42:20;9.50;;;3.10;;
8803;SDS011;4438;50.890;4.726;2023-02-05T14:44:51;9.53;;;3.57;;
8803;SDS011;4438;50.890;4.726;2023-02-05T14:47:22;9.67;;;2.97;;
8803;SDS011;4438;50.890;4.726;2023-02-05T14:49:51;10.37;;;3.50;;
8803;SDS011;4438;50.890;4.726;2023-02-05T14:54:57;6.50;;;2.97;;
8803;SDS011;4438;50.890;4.726;2023-02-05T15:00:05;10.90;;;3.43;;
8803;SDS011;4438;50.890;4.726;2023-02-05T15:07:44;10.67;;;3.43;;
8803;SDS011;4438;50.890;4.726;2023-02-05T15:10:16;10.30;;;3.27;;
8803;SDS011;4438;50.890;4.726;2023-02-05T15:13:18;9.33;;;3.63;;
8803;SDS011;4438;50.890;4.726;2023-02-05T15:15:37;10.73;;;3.07;;
8803;SDS011;4438;50.890;4.726;2023-02-05T15:18:14;10.60;;;3.73;;
8803;SDS011;4438;50.890;4.726;2023-02-05T15:20:43;8.63;;;3.20;;
8803;SDS011;4438;50.890;4.726;2023-02-05T15:23:23;8.27;;;3.17;;
8803;SDS011;4438;50.890;4.726;2023-02-05T15:25:57;9.03;;;2.93;;
8803;SDS011;4438;50.890;4.726;2023-02-05T15:28:33;8.30;;;2.80;;
8803;SDS011;4438;50.890;4.726;2023-02-05T15:31:02;9.60;;;3.00;;
8803;SDS011;4438;50.890;4.726;2023-02-05T15:33:45;10.03;;;3.27;;
8803;SDS011;4438;50.890;4.726;2023-02-05T15:36:19;10.63;;;3.63;;
8803;SDS011;4438;50.890;4.726;2023-02-05T15:38:51;12.10;;;3.77;;
8803;SDS011;4438;50.890;4.726;2023-02-05T15:41:18;9.57;;;2.90;;
8803;SDS011;4438;50.890;4.726;2023-02-05T15:43:55;9.10;;;3.40;;
8803;SDS011;4438;50.890;4.726;2023-02-05T15:46:22;9.93;;;3.27;;
8803;SDS011;4438;50.890;4.726;2023-02-05T15:48:49;9.90;;;3.30;;
8803;SDS011;4438;50.890;4.726;2023-02-05T15:53:54;11.20;;;3.10;;
8803;SDS011;4438;50.890;4.726;2023-02-05T15:56:22;11.07;;;3.10;;
8803;SDS011;4438;50.890;4.726;2023-02-05T15:59:00;10.23;;;3.40;;
8803;SDS011;4438;50.890;4.726;2023-02-05T16:03:55;12.53;;;3.33;;
8803;SDS011;4438;50.890;4.726;2023-02-05T16:06:22;12.83;;;3.40;;
8803;SDS011;4438;50.890;4.726;2023-02-05T16:08:49;9.00;;;3.00;;
8803;SDS011;4438;50.890;4.726;2023-02-05T16:11:27;12.50;;;3.47;;
8803;SDS011;4438;50.890;4.726;2023-02-05T16:16:28;11.50;;;3.30;;
8803;SDS011;4438;50.890;4.726;2023-02-05T16:18:56;13.80;;;3.73;;
8803;SDS011;4438;50.890;4.726;2023-02-05T16:21:26;11.60;;;3.40;;
8803;SDS011;4438;50.890;4.726;2023-02-05T16:23:54;16.33;;;3.87;;
8803;SDS011;4438;50.890;4.726;2023-02-05T16:26:27;12.13;;;3.83;;
8803;SDS011;4438;50.890;4.726;2023-02-05T16:28:57;10.67;;;3.90;;
8803;SDS011;4438;50.890;4.726;2023-02-05T16:31:25;8.93;;;3.10;;
8803;SDS011;4438;50.890;4.726;2023-02-05T16:36:23;11.90;;;3.50;;
8803;SDS011;4438;50.890;4.726;2023-02-05T16:38:50;7.53;;;3.00;;
8803;SDS011;4438;50.890;4.726;2023-02-05T16:41:18;11.37;;;3.23;;
8803;SDS011;4438;50.890;4.726;2023-02-05T16:43:45;13.60;;;3.47;;
8803;SDS011;4438;50.890;4.726;2023-02-05T16:51:10;11.10;;;3.50;;
8803;SDS011;4438;50.890;4.726;2023-02-05T16:53:50;15.03;;;3.73;;
8803;SDS011;4438;50.890;4.726;2023-02-05T16:56:27;10.30;;;3.40;;
8803;SDS011;4438;50.890;4.726;2023-02-05T16:58:56;13.77;;;3.93;;
8803;SDS011;4438;50.890;4.726;2023-02-05T17:01:23;16.03;;;4.10;;
8803;SDS011;4438;50.890;4.726;2023-02-05T17:03:52;12.53;;;4.10;;
8803;SDS011;4438;50.890;4.726;2023-02-05T17:06:18;10.60;;;3.80;;
8803;SDS011;4438;50.890;4.726;2023-02-05T17:08:48;14.17;;;4.40;;
8803;SDS011;4438;50.890;4.726;2023-02-05T17:14:11;16.43;;;4.47;;
8803;SDS011;4438;50.890;4.726;2023-02-05T17:16:38;14.30;;;3.80;;
8803;SDS011;4438;50.890;4.726;2023-02-05T17:19:08;13.77;;;4.13;;
8803;SDS011;4438;50.890;4.726;2023-02-05T17:21:46;10.97;;;4.13;;
8803;SDS011;4438;50.890;4.726;2023-02-05T17:24:12;15.33;;;4.03;;
8803;SDS011;4438;50.890;4.726;2023-02-05T17:26:40;11.43;;;3.20;;
8803;SDS011;4438;50.890;4.726;2023-02-05T17:29:08;10.97;;;3.80;;
8803;SDS011;4438;50.890;4.726;2023-02-05T17:31:38;12.77;;;3.83;;
8803;SDS011;4438;50.890;4.726;2023-02-05T17:34:04;17.07;;;4.57;;
8803;SDS011;4438;50.890;4.726;2023-02-05T17:36:31;13.70;;;3.77;;
8803;SDS011;4438;50.890;4.726;2023-02-05T17:38:57;17.07;;;4.53;;
8803;SDS011;4438;50.890;4.726;2023-02-05T17:41:24;13.37;;;4.20;;
8803;SDS011;4438;50.890;4.726;2023-02-05T17:44:14;13.23;;;3.63;;
8803;SDS011;4438;50.890;4.726;2023-02-05T17:46:41;15.10;;;4.23;;